createdAt,value
2023-03-29T00:01:10.264Z,-1.46
2023-03-29T00:03:44.372Z,-1.38
2023-03-29T00:06:22.525Z,-1.32
2023-03-29T00:08:54.457Z,-1.27
2023-03-29T00:11:26.588Z,-1.10
2023-03-29T00:13:56.149Z,-1.01
2023-03-29T00:16:24.491Z,-0.89
2023-03-29T00:18:52.955Z,-0.75
2023-03-29T00:21:21.462Z,-0.61
2023-03-29T00:23:49.813Z,-0.55
2023-03-29T00:26:18.196Z,-0.47
2023-03-29T00:28:46.677Z,-0.53
2023-03-29T00:31:18.789Z,-0.49
2023-03-29T00:33:47.260Z,-0.51
2023-03-29T00:36:16.214Z,-0.52
2023-03-29T00:38:43.445Z,-0.53
2023-03-29T00:41:12.029Z,-0.53
2023-03-29T00:44:04.890Z,-0.53
2023-03-29T00:46:36.185Z,-0.44
2023-03-29T00:49:14.304Z,-0.29
2023-03-29T00:51:46.009Z,-0.36
2023-03-29T00:54:19.758Z,-0.14
2023-03-29T00:56:52.194Z,-0.27
2023-03-29T00:59:33.112Z,-0.32
2023-03-29T01:02:07.417Z,-0.29
2023-03-29T01:05:05.864Z,-0.32
2023-03-29T01:08:03.440Z,-0.37
2023-03-29T01:10:47.704Z,-0.37
2023-03-29T01:13:46.470Z,-0.36
2023-03-29T01:16:22.157Z,-0.26
2023-03-29T01:18:53.039Z,-0.25
2023-03-29T01:21:33.903Z,-0.29
2023-03-29T01:25:07.384Z,-0.32
2023-03-29T01:27:57.931Z,-0.24
2023-03-29T01:30:43.367Z,-0.25
2023-03-29T01:33:38.764Z,-0.23
2023-03-29T01:36:37.332Z,-0.08
2023-03-29T01:39:08.890Z,-0.06
2023-03-29T01:42:03.270Z,-0.07
2023-03-29T01:45:20.678Z,-0.17
2023-03-29T01:48:27.372Z,-0.17
2023-03-29T01:51:18.758Z,-0.17
2023-03-29T01:54:07.745Z,-0.16
2023-03-29T01:56:45.823Z,-0.08
2023-03-29T01:59:26.379Z,-0.13
2023-03-29T02:02:05.810Z,-0.18
2023-03-29T02:04:50.219Z,-0.22
2023-03-29T02:07:30.894Z,-0.26
2023-03-29T02:10:03.448Z,-0.25
2023-03-29T02:12:33.264Z,-0.27
2023-03-29T02:15:04.826Z,-0.30
2023-03-29T02:17:32.380Z,-0.28
2023-03-29T02:20:33.901Z,-0.27
2023-03-29T02:23:27.539Z,-0.29
2023-03-29T02:25:57.813Z,-0.30
2023-03-29T02:28:30.729Z,-0.30
2023-03-29T02:31:33.412Z,-0.28
2023-03-29T02:34:16.849Z,-0.21
2023-03-29T02:37:07.008Z,-0.22
2023-03-29T02:39:41.228Z,-0.25
2023-03-29T02:42:17.135Z,-0.27
2023-03-29T02:44:57.249Z,-0.30
2023-03-29T02:47:41.723Z,-0.31
2023-03-29T02:50:13.180Z,-0.30
2023-03-29T02:52:57.162Z,-0.25
2023-03-29T02:55:34.801Z,-0.19
2023-03-29T02:58:08.569Z,-0.26
2023-03-29T03:00:48.881Z,-0.33
2023-03-29T03:03:16.992Z,-0.36
2023-03-29T03:05:45.881Z,-0.43
2023-03-29T03:08:15.885Z,-0.50
2023-03-29T03:10:46.050Z,-0.58
2023-03-29T03:13:16.216Z,-0.60
2023-03-29T03:15:49.234Z,-0.71
2023-03-29T03:18:19.332Z,-0.77
2023-03-29T03:21:02.229Z,-0.88
2023-03-29T03:23:30.564Z,-0.97
2023-03-29T03:26:00.171Z,-1.03
2023-03-29T03:28:29.781Z,-1.04
2023-03-29T03:30:59.688Z,-1.04
2023-03-29T03:33:29.780Z,-1.10
2023-03-29T03:36:06.577Z,-1.14
2023-03-29T03:38:38.888Z,-1.19
2023-03-29T03:41:07.851Z,-1.18
2023-03-29T03:43:36.657Z,-1.20
2023-03-29T03:46:08.719Z,-1.21
2023-03-29T03:48:38.882Z,-1.23
2023-03-29T03:51:09.611Z,-1.27
2023-03-29T03:53:39.248Z,-1.29
2023-03-29T03:56:10.021Z,-1.31
2023-03-29T03:58:40.224Z,-1.35
2023-03-29T04:01:10.178Z,-1.37
2023-03-29T04:03:40.565Z,-1.38
2023-03-29T04:06:10.271Z,-1.39
2023-03-29T04:08:42.318Z,-1.41
2023-03-29T04:11:11.476Z,-1.42
2023-03-29T04:13:40.921Z,-1.45
2023-03-29T04:16:08.651Z,-1.46
2023-03-29T04:18:36.827Z,-1.47
2023-03-29T04:21:05.809Z,-1.49
2023-03-29T04:23:33.606Z,-1.47
2023-03-29T04:26:02.137Z,-1.48
2023-03-29T04:28:31.248Z,-1.50
2023-03-29T04:30:58.931Z,-1.53
2023-03-29T04:33:29.010Z,-1.52
2023-03-29T04:35:58.726Z,-1.51
2023-03-29T04:38:27.171Z,-1.47
2023-03-29T04:40:55.591Z,-1.40
2023-03-29T04:43:24.144Z,-1.38
2023-03-29T04:45:52.442Z,-1.36
2023-03-29T04:48:20.883Z,-1.36
2023-03-29T04:50:49.628Z,-1.33
2023-03-29T04:53:17.764Z,-1.27
2023-03-29T04:55:48.532Z,-1.24
2023-03-29T04:58:21.495Z,-1.21
2023-03-29T05:01:00.340Z,-1.20
2023-03-29T05:03:29.219Z,-1.18
2023-03-29T05:06:08.924Z,-1.19
2023-03-29T05:08:40.560Z,-1.19
2023-03-29T05:11:11.900Z,-1.15
2023-03-29T05:13:42.720Z,-1.12
2023-03-29T05:16:12.966Z,-1.05
2023-03-29T05:18:43.160Z,-0.98
2023-03-29T05:21:13.422Z,-0.89
2023-03-29T05:23:43.193Z,-0.84
2023-03-29T05:26:15.420Z,-0.66
2023-03-29T05:28:45.194Z,-0.51
2023-03-29T05:31:16.972Z,-0.49
2023-03-29T05:33:53.669Z,-0.45
2023-03-29T05:36:22.354Z,-0.31
2023-03-29T05:38:52.565Z,-0.27
2023-03-29T05:41:23.960Z,-0.13
2023-03-29T05:43:53.879Z,-0.10
2023-03-29T05:46:22.265Z,-0.02
2023-03-29T05:48:50.799Z,0.05
2023-03-29T05:51:19.370Z,0.11
2023-03-29T05:53:47.546Z,0.12
2023-03-29T05:56:16.808Z,0.24
2023-03-29T05:58:44.325Z,0.26
2023-03-29T06:01:14.866Z,0.38
2023-03-29T06:03:46.404Z,0.84
2023-03-29T06:06:17.985Z,0.86
2023-03-29T06:08:48.306Z,0.73
2023-03-29T06:11:18.558Z,0.94
2023-03-29T06:13:48.849Z,0.98
2023-03-29T06:16:19.472Z,1.42
2023-03-29T06:18:49.905Z,1.36
2023-03-29T06:21:20.108Z,1.35
2023-03-29T06:23:50.637Z,1.50
2023-03-29T06:26:20.974Z,1.80
2023-03-29T06:28:52.448Z,2.00
2023-03-29T06:31:23.149Z,1.94
2023-03-29T06:33:53.298Z,1.96
2023-03-29T06:36:23.912Z,2.02
2023-03-29T06:38:54.035Z,2.00
2023-03-29T06:41:23.853Z,2.07
2023-03-29T06:43:54.916Z,2.08
2023-03-29T06:46:24.403Z,2.30
2023-03-29T06:48:54.087Z,2.39
2023-03-29T06:51:23.809Z,2.43
2023-03-29T06:53:54.004Z,2.47
2023-03-29T06:56:23.992Z,2.53
2023-03-29T06:58:53.924Z,2.72
2023-03-29T07:01:24.133Z,2.95
2023-03-29T07:03:54.938Z,2.96
2023-03-29T07:06:24.379Z,2.90
2023-03-29T07:08:55.361Z,3.08
2023-03-29T07:11:23.902Z,2.96
2023-03-29T07:13:53.781Z,3.03
2023-03-29T07:16:23.372Z,3.10
2023-03-29T07:18:53.612Z,3.20
2023-03-29T07:21:23.780Z,2.90
2023-03-29T07:23:54.154Z,3.14
2023-03-29T07:26:28.572Z,3.28
2023-03-29T07:28:57.474Z,3.61
2023-03-29T07:31:25.124Z,3.63
2023-03-29T07:33:54.488Z,3.72
2023-03-29T07:36:22.942Z,3.45
2023-03-29T07:38:51.289Z,3.77
2023-03-29T07:41:19.813Z,3.95
2023-03-29T07:43:48.419Z,4.04
2023-03-29T07:46:17.254Z,3.95
2023-03-29T07:48:45.033Z,4.01
2023-03-29T07:51:13.370Z,4.55
2023-03-29T07:53:41.943Z,4.50
2023-03-29T07:56:10.212Z,4.77
2023-03-29T07:58:38.674Z,4.80
2023-03-29T08:01:08.620Z,4.97
2023-03-29T08:03:38.754Z,4.90
2023-03-29T08:06:07.632Z,4.76
2023-03-29T08:08:35.343Z,4.82
2023-03-29T08:11:04.456Z,4.88
2023-03-29T08:13:32.377Z,5.03
2023-03-29T08:16:00.590Z,5.59
2023-03-29T08:18:29.096Z,5.33
2023-03-29T08:20:58.252Z,5.37
2023-03-29T08:23:26.156Z,6.05
2023-03-29T08:25:54.322Z,5.82
2023-03-29T08:28:23.440Z,5.95
2023-03-29T08:30:51.733Z,6.08
2023-03-29T08:33:19.864Z,6.13
2023-03-29T08:35:48.521Z,6.73
2023-03-29T08:38:19.950Z,7.20
2023-03-29T08:40:50.401Z,7.51
2023-03-29T08:44:10.933Z,7.98
2023-03-29T08:47:11.774Z,8.22
2023-03-29T08:49:52.335Z,8.25
2023-03-29T08:52:52.589Z,8.10
2023-03-29T08:55:47.463Z,7.75
2023-03-29T08:58:29.284Z,7.57
2023-03-29T09:01:08.814Z,7.93
2023-03-29T09:03:50.526Z,7.89
2023-03-29T09:06:22.288Z,8.19
2023-03-29T09:08:53.928Z,8.70
2023-03-29T09:11:23.866Z,8.95
2023-03-29T09:14:08.882Z,8.95
2023-03-29T09:17:30.877Z,9.41
2023-03-29T09:21:03.725Z,8.73
2023-03-29T09:24:19.105Z,9.36
2023-03-29T09:27:16.901Z,9.48
2023-03-29T09:30:26.156Z,9.90
2023-03-29T09:33:23.169Z,9.06
2023-03-29T09:36:25.673Z,9.82
2023-03-29T09:38:57.097Z,10.68
2023-03-29T09:42:01.065Z,10.58
2023-03-29T09:44:57.492Z,10.53
2023-03-29T09:47:39.231Z,10.62
2023-03-29T09:50:34.520Z,10.12
2023-03-29T09:53:05.615Z,10.12
2023-03-29T09:55:38.732Z,10.39
2023-03-29T09:58:24.804Z,10.21
2023-03-29T10:01:03.390Z,10.46
2023-03-29T10:03:35.179Z,10.74
2023-03-29T10:06:12.326Z,10.44
2023-03-29T10:08:56.981Z,10.47
2023-03-29T10:11:37.096Z,11.09
2023-03-29T10:14:42.619Z,11.33
2023-03-29T10:17:33.162Z,12.13
2023-03-29T10:20:14.519Z,12.46
2023-03-29T10:22:59.577Z,11.99
2023-03-29T10:25:36.940Z,11.65
2023-03-29T10:28:17.933Z,12.20
2023-03-29T10:30:56.476Z,12.76
2023-03-29T10:33:35.145Z,11.97
2023-03-29T10:36:08.320Z,10.96
2023-03-29T10:38:38.579Z,10.81
2023-03-29T10:41:17.573Z,10.95
2023-03-29T10:43:51.868Z,10.71
2023-03-29T10:46:33.777Z,11.21
2023-03-29T10:49:19.077Z,11.39
2023-03-29T10:51:52.576Z,11.47
2023-03-29T10:54:24.779Z,10.45
2023-03-29T10:57:07.201Z,10.75
2023-03-29T11:00:24.384Z,10.96
2023-03-29T11:03:23.551Z,11.01
2023-03-29T11:06:46.252Z,10.64
2023-03-29T11:09:50.075Z,10.52
2023-03-29T11:12:51.464Z,10.21
2023-03-29T11:16:01.868Z,10.38
2023-03-29T11:19:31.569Z,10.17
2023-03-29T11:22:24.248Z,10.73
2023-03-29T11:25:15.865Z,10.51
2023-03-29T11:28:05.762Z,10.30
2023-03-29T11:31:12.518Z,10.55
2023-03-29T11:34:23.004Z,10.61
2023-03-29T11:37:33.594Z,10.82
2023-03-29T11:40:47.508Z,10.70
2023-03-29T11:43:32.235Z,10.83
2023-03-29T11:46:14.049Z,10.68
2023-03-29T11:49:10.189Z,11.13
2023-03-29T11:52:25.682Z,10.67
2023-03-29T11:55:12.299Z,10.62
2023-03-29T11:58:02.280Z,10.53
2023-03-29T12:00:48.250Z,10.48
2023-03-29T12:03:47.371Z,10.50
2023-03-29T12:07:21.010Z,10.26
2023-03-29T12:10:16.859Z,10.56
2023-03-29T12:13:22.838Z,10.67
2023-03-29T12:16:52.280Z,10.78
2023-03-29T12:19:44.429Z,11.09
2023-03-29T12:22:13.038Z,11.07
2023-03-29T12:24:52.481Z,10.62
2023-03-29T12:28:25.466Z,10.53
2023-03-29T12:31:23.965Z,10.85
2023-03-29T12:34:18.503Z,11.10
2023-03-29T12:38:07.357Z,11.07
2023-03-29T12:40:54.055Z,11.40
2023-03-29T12:43:43.552Z,11.13
2023-03-29T12:46:26.752Z,11.28
2023-03-29T12:49:21.405Z,11.10
2023-03-29T12:51:53.185Z,10.99
2023-03-29T12:54:32.990Z,11.08
2023-03-29T12:57:42.340Z,11.00
2023-03-29T13:00:33.045Z,11.08
2023-03-29T13:03:57.622Z,10.77
2023-03-29T13:06:49.425Z,11.09
2023-03-29T13:09:37.913Z,11.24
2023-03-29T13:12:15.949Z,11.53
2023-03-29T13:15:21.042Z,11.30
2023-03-29T13:18:39.146Z,11.13
2023-03-29T13:22:24.051Z,11.26
2023-03-29T13:25:24.278Z,10.81
2023-03-29T13:28:48.886Z,10.79
2023-03-29T13:32:08.124Z,10.65
2023-03-29T13:35:02.004Z,10.92
2023-03-29T13:38:07.883Z,10.71
2023-03-29T13:40:41.700Z,10.28
2023-03-29T13:43:44.720Z,10.29
2023-03-29T13:46:42.288Z,10.21
2023-03-29T13:49:28.692Z,10.16
2023-03-29T13:52:33.413Z,10.31
2023-03-29T13:55:29.765Z,10.23
2023-03-29T13:58:13.598Z,10.23
2023-03-29T14:01:02.620Z,10.41
2023-03-29T14:06:37.782Z,10.15
2023-03-29T14:09:09.334Z,10.37
2023-03-29T14:11:43.632Z,10.29
2023-03-29T14:14:12.472Z,9.94
2023-03-29T14:16:42.378Z,9.87
2023-03-29T14:19:35.502Z,9.96
2023-03-29T14:22:21.013Z,9.86
2023-03-29T14:24:57.173Z,9.77
2023-03-29T14:27:32.848Z,9.99
2023-03-29T14:30:02.288Z,9.92
2023-03-29T14:32:32.467Z,9.80
2023-03-29T14:35:01.428Z,9.74
2023-03-29T14:37:31.617Z,9.82
2023-03-29T14:40:01.928Z,10.10
2023-03-29T14:42:31.946Z,9.79
2023-03-29T14:45:10.491Z,10.07
2023-03-29T14:47:42.446Z,9.96
2023-03-29T14:50:29.587Z,10.25
2023-03-29T14:53:02.560Z,10.03
2023-03-29T14:55:34.265Z,10.08
2023-03-29T14:58:20.107Z,10.13
2023-03-29T15:00:53.418Z,9.85
2023-03-29T15:03:26.565Z,9.71
2023-03-29T15:06:05.446Z,9.96
2023-03-29T15:08:57.669Z,9.94
2023-03-29T15:11:35.082Z,10.04
2023-03-29T15:14:18.924Z,9.96
2023-03-29T15:16:56.728Z,9.88
2023-03-29T15:19:27.613Z,9.75
2023-03-29T15:21:58.842Z,9.83
2023-03-29T15:24:34.251Z,10.06
2023-03-29T15:27:17.647Z,9.92
2023-03-29T15:29:48.575Z,9.79
2023-03-29T15:32:36.182Z,9.69
2023-03-29T15:35:23.434Z,9.85
2023-03-29T15:37:54.576Z,9.94
2023-03-29T15:40:28.324Z,10.16
2023-03-29T15:42:59.321Z,10.31
2023-03-29T15:45:29.655Z,10.28
2023-03-29T15:48:04.925Z,10.37
2023-03-29T15:50:35.111Z,10.36
2023-03-29T15:53:14.597Z,10.41
2023-03-29T15:55:53.306Z,10.42
2023-03-29T15:58:30.909Z,10.31
2023-03-29T16:01:37.670Z,10.37
2023-03-29T16:04:18.796Z,10.16
2023-03-29T16:06:54.074Z,9.98
2023-03-29T16:09:25.936Z,9.87
2023-03-29T16:11:54.961Z,10.10
2023-03-29T16:14:31.521Z,9.95
2023-03-29T16:17:03.103Z,9.94
2023-03-29T16:19:33.994Z,9.99
2023-03-29T16:22:07.458Z,9.96
2023-03-29T16:24:38.152Z,9.75
2023-03-29T16:27:08.471Z,9.81
2023-03-29T16:29:38.557Z,9.85
2023-03-29T16:32:07.080Z,9.66
2023-03-29T16:34:36.175Z,9.92
2023-03-29T16:37:06.472Z,9.84
2023-03-29T16:39:38.016Z,9.62
2023-03-29T16:42:13.938Z,9.43
2023-03-29T16:44:44.767Z,9.49
2023-03-29T16:47:14.937Z,9.59
2023-03-29T16:49:48.681Z,9.44
2023-03-29T16:52:16.335Z,9.55
2023-03-29T16:54:47.096Z,9.57
2023-03-29T16:57:17.192Z,9.41
2023-03-29T16:59:47.880Z,9.32
2023-03-29T17:02:18.182Z,9.12
2023-03-29T17:04:48.175Z,9.04
2023-03-29T17:07:18.079Z,9.28
2023-03-29T17:09:48.488Z,9.17
2023-03-29T17:12:20.703Z,8.98
2023-03-29T17:14:49.890Z,8.87
2023-03-29T17:17:18.272Z,8.93
2023-03-29T17:19:48.077Z,8.98
2023-03-29T17:22:15.639Z,8.99
2023-03-29T17:24:44.107Z,8.90
2023-03-29T17:27:12.245Z,8.82
2023-03-29T17:29:40.850Z,8.75
2023-03-29T17:32:09.315Z,8.96
2023-03-29T17:34:38.818Z,8.77
2023-03-29T17:37:06.167Z,8.70
2023-03-29T17:39:37.632Z,8.96
2023-03-29T17:42:11.799Z,8.86
2023-03-29T17:44:42.409Z,8.89
2023-03-29T17:47:12.745Z,8.85
2023-03-29T17:49:42.907Z,8.67
2023-03-29T17:52:13.169Z,8.74
2023-03-29T17:54:43.335Z,8.80
2023-03-29T17:57:13.587Z,8.67
2023-03-29T17:59:43.758Z,8.58
2023-03-29T18:02:22.150Z,8.61
2023-03-29T18:04:52.547Z,8.53
2023-03-29T18:07:22.701Z,8.46
2023-03-29T18:09:52.937Z,8.36
2023-03-29T18:12:26.843Z,8.30
2023-03-29T18:14:57.288Z,8.27
2023-03-29T18:17:27.812Z,8.24
2023-03-29T18:19:58.094Z,8.22
2023-03-29T18:22:28.825Z,8.20
2023-03-29T18:24:58.955Z,8.26
2023-03-29T18:27:29.086Z,8.22
2023-03-29T18:30:00.172Z,8.22
2023-03-29T18:32:30.425Z,8.17
2023-03-29T18:35:02.440Z,8.12
2023-03-29T18:37:32.692Z,8.09
2023-03-29T18:40:04.556Z,8.06
2023-03-29T18:42:34.783Z,8.07
2023-03-29T18:45:06.156Z,8.06
2023-03-29T18:47:36.428Z,8.07
2023-03-29T18:50:07.863Z,8.06
2023-03-29T18:52:35.059Z,8.10
2023-03-29T18:55:05.543Z,8.07
2023-03-29T18:57:34.890Z,8.04
2023-03-29T19:00:10.585Z,8.06
2023-03-29T19:02:42.153Z,8.15
2023-03-29T19:05:12.580Z,8.35
2023-03-29T19:07:42.755Z,8.23
2023-03-29T19:10:12.966Z,8.15
2023-03-29T19:12:43.144Z,8.14
2023-03-29T19:15:13.919Z,8.07
2023-03-29T19:17:44.131Z,8.23
2023-03-29T19:20:14.661Z,8.25
2023-03-29T19:22:44.853Z,8.24
2023-03-29T19:25:15.045Z,8.13
2023-03-29T19:27:46.513Z,8.08
2023-03-29T19:30:18.425Z,8.41
2023-03-29T19:32:48.618Z,8.27
2023-03-29T19:35:19.340Z,8.20
2023-03-29T19:37:49.500Z,8.19
2023-03-29T19:40:20.232Z,8.11
2023-03-29T19:42:50.427Z,8.02
2023-03-29T19:45:21.741Z,8.00
2023-03-29T19:48:02.832Z,8.00
2023-03-29T19:50:34.102Z,7.98
2023-03-29T19:53:04.623Z,7.87
2023-03-29T19:55:32.662Z,7.87
2023-03-29T19:58:01.143Z,7.85
2023-03-29T20:00:29.606Z,7.83
2023-03-29T20:02:58.625Z,7.83
2023-03-29T20:05:26.859Z,7.80
2023-03-29T20:07:54.986Z,7.81
2023-03-29T20:10:23.311Z,7.98
2023-03-29T20:12:51.724Z,7.90
2023-03-29T20:15:20.409Z,7.86
2023-03-29T20:17:48.604Z,8.07
2023-03-29T20:20:17.048Z,7.99
2023-03-29T20:22:45.652Z,8.00
2023-03-29T20:25:14.384Z,7.98
2023-03-29T20:27:42.913Z,8.10
2023-03-29T20:30:12.877Z,8.12
2023-03-29T20:32:42.261Z,8.01
2023-03-29T20:35:12.256Z,7.89
2023-03-29T20:37:42.578Z,7.86
2023-03-29T20:40:13.932Z,7.83
2023-03-29T20:42:46.391Z,7.82
2023-03-29T20:45:19.794Z,7.82
2023-03-29T20:48:02.442Z,7.94
2023-03-29T20:50:32.842Z,7.89
2023-03-29T20:53:04.074Z,7.91
2023-03-29T20:55:38.747Z,7.89
2023-03-29T20:58:09.777Z,7.77
2023-03-29T21:00:40.516Z,7.71
2023-03-29T21:03:11.339Z,7.68
2023-03-29T21:05:41.888Z,7.66
2023-03-29T21:08:12.071Z,7.64
2023-03-29T21:10:42.595Z,7.61
2023-03-29T21:13:12.721Z,7.59
2023-03-29T21:15:43.892Z,7.57
2023-03-29T21:18:14.277Z,7.55
2023-03-29T21:20:45.058Z,7.55
2023-03-29T21:23:15.231Z,7.55
2023-03-29T21:25:45.690Z,7.61
2023-03-29T21:28:16.697Z,7.59
2023-03-29T21:30:46.807Z,7.71
2023-03-29T21:33:16.944Z,7.77
2023-03-29T21:35:50.759Z,7.89
2023-03-29T21:38:18.494Z,7.81
2023-03-29T21:40:46.929Z,7.88
2023-03-29T21:43:15.804Z,7.73
2023-03-29T21:45:43.874Z,7.67
2023-03-29T21:48:12.204Z,7.63
2023-03-29T21:50:40.551Z,7.63
2023-03-29T21:53:09.345Z,7.71
2023-03-29T21:55:37.469Z,7.81
2023-03-29T21:58:06.152Z,7.72
2023-03-29T22:00:34.259Z,7.75
2023-03-29T22:03:02.661Z,7.86
2023-03-29T22:05:31.347Z,7.81
2023-03-29T22:07:59.612Z,7.84
2023-03-29T22:10:28.050Z,7.89
2023-03-29T22:12:57.358Z,7.79
2023-03-29T22:15:24.818Z,7.68
2023-03-29T22:17:53.495Z,7.62
2023-03-29T22:20:22.597Z,7.59
2023-03-29T22:22:51.141Z,7.57
2023-03-29T22:25:20.543Z,7.64
2023-03-29T22:27:50.663Z,7.63
2023-03-29T22:30:21.129Z,7.60
2023-03-29T22:32:51.326Z,7.57
2023-03-29T22:35:21.615Z,7.69
2023-03-29T22:37:51.742Z,7.62
2023-03-29T22:40:21.813Z,7.57
2023-03-29T22:42:51.922Z,7.53
2023-03-29T22:45:22.042Z,7.51
2023-03-29T22:47:52.146Z,7.65
2023-03-29T22:50:22.849Z,7.59
2023-03-29T22:52:52.913Z,7.53
2023-03-29T22:55:23.031Z,7.48
2023-03-29T22:57:53.194Z,7.45
2023-03-29T23:00:23.778Z,7.43
2023-03-29T23:02:54.150Z,7.45
2023-03-29T23:05:24.676Z,7.40
2023-03-29T23:07:55.949Z,7.35
2023-03-29T23:10:30.577Z,7.29
2023-03-29T23:13:08.993Z,7.26
2023-03-29T23:15:47.538Z,7.25
2023-03-29T23:18:21.362Z,7.24
2023-03-29T23:20:54.810Z,7.20
2023-03-29T23:23:28.226Z,7.17
2023-03-29T23:25:59.920Z,7.17
2023-03-29T23:28:31.565Z,7.16
2023-03-29T23:31:10.213Z,7.15
2023-03-29T23:33:43.086Z,7.13
2023-03-29T23:36:19.452Z,7.12
2023-03-29T23:38:49.651Z,7.09
2023-03-29T23:41:20.520Z,7.12
2023-03-29T23:43:51.740Z,7.12
2023-03-29T23:46:21.864Z,7.17
2023-03-29T23:48:52.419Z,7.23
2023-03-29T23:51:23.393Z,7.20
2023-03-29T23:53:54.414Z,7.22
2023-03-29T23:56:25.067Z,7.22
2023-03-29T23:58:55.224Z,7.20
